Time;durP1;ratioP1;P1;durP2;ratioP2;P2;SDS_P1;SDS_P2;PMS_P1;PMS_P2;Temp;Humidity;BMP_temperature;BMP_pressure;BME280_temperature;BME280_humidity;BME280_pressure;Samples;Min_cycle;Max_cycle;Signal;HPM_P1;HPM_P2
2022/01/08 00:00:29;;;;;;;34.97;8.93;;;9.70;80.30;;;;;;5098646;28;20146;-45
2022/01/08 00:02:55;;;;;;;32.78;9.18;;;9.70;79.60;;;;;;5098958;28;20024;-45
2022/01/08 00:05:22;;;;;;;35.15;9.70;;;9.60;79.60;;;;;;5098657;28;20082;-45
2022/01/08 00:07:48;;;;;;;40.85;9.82;;;9.60;78.40;;;;;;5097772;28;20452;-45
2022/01/08 00:10:14;;;;;;;34.53;8.10;;;9.60;80.30;;;;;;5098753;28;20051;-45
2022/01/08 00:12:40;;;;;;;33.10;8.98;;;9.60;80.20;;;;;;5098749;28;20038;-45
2022/01/08 00:15:07;;;;;;;43.30;10.32;;;9.60;79.90;;;;;;5098512;28;20498;-45
2022/01/08 00:17:34;;;;;;;37.10;9.13;;;9.70;81.00;;;;;;5098655;28;20020;-45
2022/01/08 00:20:00;;;;;;;40.47;11.38;;;9.70;79.90;;;;;;5098302;28;20073;-45
2022/01/08 00:22:26;;;;;;;40.00;10.18;;;9.70;81.30;;;;;;5098349;28;20015;-45
2022/01/08 00:24:55;;;;;;;40.33;9.32;;;9.80;81.60;;;;;;5098247;28;20020;-45
2022/01/08 00:27:22;;;;;;;43.92;8.90;;;9.80;81.70;;;;;;5098247;28;20038;-45
2022/01/08 00:29:50;;;;;;;44.15;9.23;;;9.90;82.30;;;;;;5098341;28;20071;-45
2022/01/08 00:32:17;;;;;;;41.42;9.23;;;10.00;81.50;;;;;;5098234;28;20724;-46
2022/01/08 00:34:43;;;;;;;43.92;8.68;;;10.10;81.80;;;;;;5098282;28;20035;-45
2022/01/08 00:37:09;;;;;;;41.05;8.95;;;10.10;82.20;;;;;;5098013;28;20483;-45
2022/01/08 00:39:36;;;;;;;32.38;8.73;;;10.10;82.10;;;;;;5098261;28;20497;-45
2022/01/08 00:42:02;;;;;;;39.25;8.75;;;10.20;81.10;;;;;;5098191;28;20052;-45
2022/01/08 00:44:28;;;;;;;32.47;8.32;;;10.20;81.70;;;;;;5098035;28;20092;-46
2022/01/08 00:46:54;;;;;;;33.10;7.88;;;10.20;79.80;;;;;;5098169;28;20093;-45
2022/01/08 00:49:20;;;;;;;36.92;8.02;;;10.20;81.60;;;;;;5098021;28;20420;-45
2022/01/08 00:51:45;;;;;;;38.63;8.43;;;10.30;83.00;;;;;;5097939;28;20089;-44
2022/01/08 00:54:11;;;;;;;40.88;8.43;;;10.30;82.20;;;;;;5098187;28;20054;-45
2022/01/08 00:56:37;;;;;;;33.28;7.97;;;10.20;81.80;;;;;;5098059;28;20032;-45
2022/01/08 00:59:04;;;;;;;39.20;6.80;;;10.30;81.20;;;;;;5098281;28;20032;-45
2022/01/08 01:01:31;;;;;;;31.67;7.78;;;10.30;81.10;;;;;;5097839;28;20028;-45
2022/01/08 01:03:57;;;;;;;47.53;8.68;;;10.30;82.00;;;;;;5098264;28;20024;-45
2022/01/08 01:06:23;;;;;;;38.28;7.63;;;10.30;81.70;;;;;;5097963;28;20020;-45
2022/01/08 01:08:50;;;;;;;32.83;7.78;;;10.30;81.90;;;;;;5097966;28;20056;-45
2022/01/08 01:11:16;;;;;;;48.72;9.55;;;10.40;82.00;;;;;;5097516;28;20088;-45
2022/01/08 01:13:42;;;;;;;35.60;7.70;;;10.30;80.90;;;;;;5097927;28;20040;-45
2022/01/08 01:16:08;;;;;;;37.88;7.93;;;10.30;81.90;;;;;;5097850;28;20487;-45
2022/01/08 01:18:35;;;;;;;40.75;8.50;;;10.30;81.40;;;;;;5097905;28;20475;-45
2022/01/08 01:21:02;;;;;;;40.38;8.52;;;10.30;81.40;;;;;;5097307;28;20048;-45
2022/01/08 01:23:33;;;;;;;42.70;8.00;;;10.30;80.60;;;;;;5097584;28;20032;-45
2022/01/08 01:26:03;;;;;;;42.60;8.68;;;10.30;82.30;;;;;;5097700;28;20032;-45
2022/01/08 01:47:17;;;;;;;36.72;7.88;;;10.10;80.50;;;;;;5097687;28;20030;-45
2022/01/08 01:49:45;;;;;;;39.60;7.97;;;10.10;81.00;;;;;;5101234;28;20391;-44
2022/01/08 01:52:14;;;;;;;41.58;8.25;;;10.20;82.10;;;;;;5101493;28;20021;-45
2022/01/08 01:54:40;;;;;;;34.45;7.15;;;10.20;81.60;;;;;;5101364;28;20027;-45
2022/01/08 01:57:08;;;;;;;36.22;7.70;;;10.20;81.10;;;;;;5101154;28;20502;-45
2022/01/08 01:59:36;;;;;;;42.00;7.93;;;10.20;80.70;;;;;;5101055;28;20078;-45
2022/01/08 02:02:02;;;;;;;34.28;7.20;;;10.20;81.70;;;;;;5100994;28;20046;-45
2022/01/08 02:04:28;;;;;;;32.95;6.60;;;10.30;81.70;;;;;;5100985;28;20024;-45
2022/01/08 02:06:54;;;;;;;36.97;7.50;;;10.30;81.30;;;;;;5101213;28;20077;-47
2022/01/08 02:09:20;;;;;;;41.08;7.65;;;10.30;82.50;;;;;;5101114;28;20430;-45
2022/01/08 02:11:57;;;;;;;32.80;6.97;;;10.40;82.20;;;;;;5101129;28;20532;-45
2022/01/08 02:14:24;;;;;;;37.78;7.55;;;10.40;81.40;;;;;;5100750;28;20097;-45
2022/01/08 02:16:49;;;;;;;42.47;7.82;;;10.40;81.40;;;;;;5100738;28;20107;-45
2022/01/08 02:19:15;;;;;;;32.08;6.93;;;10.40;81.40;;;;;;5100728;28;20068;-45
2022/01/08 02:21:53;;;;;;;35.45;7.30;;;10.40;81.60;;;;;;5100503;28;20068;-45
2022/01/08 02:24:19;;;;;;;34.40;7.32;;;10.40;81.50;;;;;;5100883;28;20049;-45
2022/01/08 02:26:45;;;;;;;27.33;6.00;;;10.40;82.20;;;;;;5100648;28;20032;-45
2022/01/08 02:29:16;;;;;;;32.17;7.05;;;10.30;81.30;;;;;;5100781;28;20024;-45
2022/01/08 02:32:01;;;;;;;35.65;6.15;;;10.30;82.80;;;;;;5100690;28;20016;-45
2022/01/08 02:34:27;;;;;;;36.17;6.50;;;10.20;81.50;;;;;;5100654;28;20024;-45
2022/01/08 02:36:55;;;;;;;33.80;6.82;;;10.20;82.10;;;;;;5100761;28;20031;-45
2022/01/08 02:39:21;;;;;;;38.25;7.50;;;10.10;82.30;;;;;;5100404;28;20043;-45
2022/01/08 02:41:47;;;;;;;39.65;6.85;;;10.10;82.80;;;;;;5100388;28;20073;-45
2022/01/08 02:44:13;;;;;;;31.38;5.75;;;10.10;81.50;;;;;;5100519;28;20352;-45
2022/01/08 02:46:40;;;;;;;28.23;6.35;;;10.00;81.00;;;;;;5100165;28;20080;-45
2022/01/08 02:49:07;;;;;;;29.38;6.75;;;10.00;80.90;;;;;;5100376;28;20391;-44
2022/01/08 02:51:35;;;;;;;23.67;5.65;;;9.90;82.10;;;;;;5100107;28;20084;-45
2022/01/08 02:54:02;;;;;;;31.00;6.07;;;9.90;82.00;;;;;;5100136;28;20024;-45
2022/01/08 02:56:28;;;;;;;29.75;5.72;;;9.90;82.30;;;;;;5100375;28;20031;-45
2022/01/08 02:58:53;;;;;;;28.08;5.90;;;9.80;81.90;;;;;;5099256;28;20036;-44
2022/01/08 03:01:19;;;;;;;34.70;6.95;;;9.80;82.00;;;;;;5099579;28;20030;-45
2022/01/08 03:03:45;;;;;;;33.17;6.70;;;9.80;82.40;;;;;;5100152;28;20054;-45
2022/01/08 03:06:11;;;;;;;34.03;7.80;;;9.80;82.20;;;;;;5099102;28;20020;-45
2022/01/08 03:08:37;;;;;;;33.08;5.32;;;9.80;82.00;;;;;;5100023;28;20036;-45
2022/01/08 03:11:02;;;;;;;40.03;5.97;;;9.80;81.50;;;;;;5099725;28;20059;-45
2022/01/08 03:13:28;;;;;;;29.73;6.00;;;9.70;82.50;;;;;;5099868;28;20032;-44
2022/01/08 03:15:54;;;;;;;34.85;7.43;;;9.70;81.50;;;;;;5099588;28;20118;-45
2022/01/08 03:18:20;;;;;;;35.47;7.10;;;9.70;82.20;;;;;;5099665;28;20020;-45
2022/01/08 03:21:00;;;;;;;30.83;5.90;;;9.70;81.80;;;;;;5099372;28;20055;-45
2022/01/08 03:23:35;;;;;;;31.27;6.15;;;9.70;81.90;;;;;;5099286;28;20074;-45
2022/01/08 03:26:01;;;;;;;32.05;6.00;;;9.70;82.30;;;;;;5099481;28;20031;-45
2022/01/08 03:28:26;;;;;;;28.50;5.75;;;9.60;81.80;;;;;;5099541;28;20475;-45
2022/01/08 03:30:52;;;;;;;33.50;7.07;;;9.70;83.40;;;;;;5099502;28;20415;-45
2022/01/08 03:33:18;;;;;;;35.53;7.28;;;9.70;81.40;;;;;;5099328;28;20490;-44
2022/01/08 03:35:44;;;;;;;33.08;7.78;;;9.70;81.10;;;;;;5099415;28;20568;-45
2022/01/08 03:38:09;;;;;;;32.30;6.65;;;9.80;83.70;;;;;;5099388;28;20028;-45
2022/01/08 03:40:35;;;;;;;36.35;6.22;;;9.80;82.10;;;;;;5099333;28;20031;-45
2022/01/08 03:43:01;;;;;;;33.53;6.25;;;9.80;82.70;;;;;;5099570;28;20055;-45
2022/01/08 03:45:27;;;;;;;36.10;6.80;;;9.80;82.90;;;;;;5099061;28;20024;-45
2022/01/08 03:50:37;;;;;;;34.53;8.38;;;9.70;84.20;;;;;;5098970;28;20526;-45
2022/01/08 03:53:02;;;;;;;27.95;5.70;;;9.80;84.20;;;;;;5098937;28;20099;-45
2022/01/08 03:55:28;;;;;;;31.70;5.78;;;9.80;82.80;;;;;;5098937;28;20102;-44
2022/01/08 03:57:54;;;;;;;34.25;6.63;;;9.80;82.10;;;;;;5098744;28;20085;-45
2022/01/08 04:00:20;;;;;;;36.63;7.32;;;9.80;84.80;;;;;;5098501;28;20032;-46
2022/01/08 04:02:46;;;;;;;35.42;7.13;;;9.80;83.00;;;;;;5098730;28;20111;-46
2022/01/08 04:05:11;;;;;;;39.75;7.28;;;9.80;83.30;;;;;;5098754;28;20012;-45
2022/01/08 04:07:37;;;;;;;42.65;8.60;;;9.80;84.20;;;;;;5097322;28;20024;-45
2022/01/08 04:10:04;;;;;;;34.55;5.88;;;9.80;84.50;;;;;;5098618;28;20148;-45
2022/01/08 04:12:55;;;;;;;37.35;6.78;;;9.80;83.60;;;;;;5098563;28;20020;-45
2022/01/08 04:17:51;;;;;;;;;;;9.90;84.60;;;;;;5099130;28;20091;-45
2022/01/08 04:20:18;;;;;;;39.13;7.28;;;9.90;85.10;;;;;;5098199;28;19920;-45
2022/01/08 04:22:47;;;;;;;32.85;6.82;;;9.90;84.50;;;;;;5098490;28;20024;-45
2022/01/08 04:25:13;;;;;;;30.27;6.43;;;9.90;84.10;;;;;;5098394;28;20048;-45
2022/01/08 04:27:38;;;;;;;30.50;6.55;;;9.80;85.00;;;;;;5098661;28;20072;-46
2022/01/08 04:30:05;;;;;;;40.83;7.65;;;9.80;84.20;;;;;;5098488;28;20056;-48
2022/01/08 04:32:30;;;;;;;33.13;6.25;;;9.80;84.10;;;;;;5098430;28;20042;-45
2022/01/08 04:34:56;;;;;;;31.45;6.15;;;9.80;84.90;;;;;;5098220;28;20024;-45
2022/01/08 04:37:22;;;;;;;34.38;7.07;;;9.90;84.70;;;;;;5098679;28;20024;-45
2022/01/08 04:39:48;;;;;;;35.80;7.60;;;9.90;85.10;;;;;;5098276;28;20110;-44
2022/01/08 04:42:14;;;;;;;36.95;8.18;;;9.90;85.00;;;;;;5098264;28;20111;-45
2022/01/08 04:44:39;;;;;;;32.42;7.68;;;9.90;84.20;;;;;;5098069;28;20047;-45
2022/01/08 04:47:05;;;;;;;45.17;7.30;;;10.00;84.60;;;;;;5098196;28;20026;-45
2022/01/08 04:49:31;;;;;;;27.70;6.57;;;10.00;85.20;;;;;;5098212;28;20057;-45
2022/01/08 04:51:57;;;;;;;31.13;6.53;;;10.00;84.10;;;;;;5098297;28;20024;-45
2022/01/08 04:54:23;;;;;;;31.73;6.70;;;10.00;84.80;;;;;;5097949;28;20028;-45
2022/01/08 04:56:49;;;;;;;29.85;6.38;;;9.90;84.50;;;;;;5098100;28;20052;-45
2022/01/08 04:59:16;;;;;;;36.88;6.05;;;10.00;84.10;;;;;;5098294;28;20028;-45
2022/01/08 05:01:42;;;;;;;35.92;6.45;;;10.00;85.00;;;;;;5097823;28;20024;-45
2022/01/08 05:04:08;;;;;;;35.85;6.82;;;10.00;84.50;;;;;;5098274;28;20032;-45
2022/01/08 05:06:34;;;;;;;37.42;6.65;;;10.00;85.20;;;;;;5097957;28;20027;-48
2022/01/08 05:09:00;;;;;;;38.35;6.63;;;10.10;84.20;;;;;;5097792;28;20364;-45
2022/01/08 05:11:29;;;;;;;36.22;6.47;;;10.10;84.80;;;;;;5097516;28;20028;-45
2022/01/08 05:13:56;;;;;;;34.22;6.95;;;10.20;84.80;;;;;;5097738;28;20472;-45
2022/01/08 05:16:24;;;;;;;36.47;7.22;;;10.20;85.00;;;;;;5097880;28;20020;-45
2022/01/08 05:18:53;;;;;;;36.40;7.47;;;10.20;84.90;;;;;;5097627;28;20032;-45
2022/01/08 05:23:47;;;;;;;32.85;7.97;;;10.20;84.40;;;;;;5100837;28;20474;-45
2022/01/08 05:26:13;;;;;;;32.25;6.65;;;10.20;84.30;;;;;;5102187;28;20016;-44
2022/01/08 05:28:38;;;;;;;38.88;7.43;;;10.30;85.00;;;;;;5101966;28;20020;-46
2022/01/08 05:31:04;;;;;;;34.95;7.55;;;10.30;85.30;;;;;;5101867;28;20502;-45
2022/01/08 05:33:30;;;;;;;30.92;5.55;;;10.30;85.10;;;;;;5101886;28;20114;-45
2022/01/08 05:35:56;;;;;;;39.17;6.97;;;10.40;84.50;;;;;;5101583;28;20024;-45
2022/01/08 05:38:22;;;;;;;45.35;7.30;;;10.40;85.90;;;;;;5101887;28;20031;-45
2022/01/08 05:40:48;;;;;;;33.38;6.63;;;10.50;86.40;;;;;;5101428;28;20020;-45
2022/01/08 05:43:14;;;;;;;39.17;6.50;;;10.50;86.10;;;;;;5102215;28;20039;-45
2022/01/08 05:45:39;;;;;;;42.78;7.53;;;10.50;85.50;;;;;;5101347;28;20019;-45
2022/01/08 05:48:06;;;;;;;40.65;7.75;;;10.60;86.10;;;;;;5101364;28;20024;-45
2022/01/08 05:50:32;;;;;;;36.33;7.28;;;10.60;85.10;;;;;;5101494;28;20020;-45
2022/01/08 05:52:57;;;;;;;39.10;8.50;;;10.60;85.80;;;;;;5101186;28;20072;-45
2022/01/08 05:55:23;;;;;;;46.53;8.90;;;10.70;86.00;;;;;;5101646;28;20024;-45
2022/01/08 05:57:49;;;;;;;39.88;7.10;;;10.70;85.40;;;;;;5101409;28;20028;-45
2022/01/08 06:00:15;;;;;;;43.17;7.38;;;10.70;85.50;;;;;;5100794;28;20024;-45
2022/01/08 06:02:41;;;;;;;41.30;7.78;;;10.70;85.40;;;;;;5100831;28;20111;-45
2022/01/08 06:05:07;;;;;;;36.95;5.80;;;10.70;84.90;;;;;;5101040;28;20021;-45
2022/01/08 06:07:34;;;;;;;39.72;6.72;;;10.70;84.50;;;;;;5100983;28;20016;-45
2022/01/08 06:09:59;;;;;;;34.28;7.00;;;10.70;84.10;;;;;;5100921;28;20537;-45
2022/01/08 06:12:25;;;;;;;44.63;8.57;;;10.80;83.40;;;;;;5100939;28;20023;-45
2022/01/08 06:14:51;;;;;;;37.13;7.53;;;10.80;83.70;;;;;;5100824;28;20476;-45
2022/01/08 06:17:17;;;;;;;31.48;6.28;;;10.70;83.80;;;;;;5100991;28;20497;-46
2022/01/08 06:19:43;;;;;;;34.45;7.30;;;10.80;83.40;;;;;;5100668;28;20051;-45
2022/01/08 06:22:08;;;;;;;35.53;7.45;;;10.80;83.80;;;;;;5100344;28;20044;-44
2022/01/08 06:24:34;;;;;;;36.97;6.75;;;10.80;84.20;;;;;;5100667;28;20024;-46
2022/01/08 06:27:00;;;;;;;27.00;5.60;;;10.80;83.80;;;;;;5101093;28;20046;-44
2022/01/08 06:29:27;;;;;;;35.15;7.15;;;10.80;83.90;;;;;;5100487;28;20028;-45
2022/01/08 06:31:53;;;;;;;39.53;7.40;;;10.80;84.20;;;;;;5100778;28;20073;-46
2022/01/08 06:34:19;;;;;;;42.97;7.75;;;10.80;84.50;;;;;;5100376;28;20058;-45
2022/01/08 06:36:47;;;;;;;41.55;8.65;;;10.80;84.30;;;;;;5100431;28;20024;-45
2022/01/08 06:39:17;;;;;;;39.80;6.05;;;10.80;83.90;;;;;;5100444;28;20034;-45
2022/01/08 06:41:42;;;;;;;33.33;7.32;;;10.80;83.90;;;;;;5100438;28;20028;-45
2022/01/08 06:44:09;;;;;;;36.60;7.53;;;10.80;84.00;;;;;;5100348;28;20012;-45
2022/01/08 06:46:34;;;;;;;38.42;8.90;;;10.80;83.80;;;;;;5100426;28;20044;-46
2022/01/08 06:49:00;;;;;;;37.17;7.38;;;10.80;84.30;;;;;;5100442;28;20012;-45
2022/01/08 06:51:26;;;;;;;37.92;8.20;;;10.80;84.00;;;;;;5100149;28;20103;-45
2022/01/08 06:53:52;;;;;;;50.92;9.23;;;10.80;84.10;;;;;;5100603;28;20074;-45
2022/01/08 06:56:19;;;;;;;43.53;9.02;;;10.80;84.40;;;;;;5100055;28;20027;-47
2022/01/08 06:58:45;;;;;;;34.63;8.30;;;10.80;83.70;;;;;;5100078;28;20150;-45
2022/01/08 07:01:11;;;;;;;40.40;8.88;;;10.80;83.70;;;;;;5099785;28;20402;-45
2022/01/08 07:03:37;;;;;;;50.50;8.85;;;10.80;83.60;;;;;;5100096;28;20024;-45
2022/01/08 07:06:03;;;;;;;47.38;9.10;;;10.90;83.40;;;;;;5099656;28;20073;-45
2022/01/08 07:08:29;;;;;;;41.45;8.68;;;10.90;82.70;;;;;;5100015;28;20028;-45
2022/01/08 07:10:55;;;;;;;36.22;8.00;;;10.90;82.30;;;;;;5099760;28;20024;-45
2022/01/08 07:13:21;;;;;;;33.53;7.93;;;10.90;81.90;;;;;;5099891;28;20031;-45
2022/01/08 07:15:46;;;;;;;33.42;6.22;;;10.90;81.30;;;;;;5099839;28;20028;-45
2022/01/08 07:18:12;;;;;;;31.80;7.38;;;10.90;81.10;;;;;;5099539;28;20110;-46
2022/01/08 07:20:38;;;;;;;39.67;7.28;;;10.90;80.50;;;;;;5099494;28;20048;-45
2022/01/08 07:23:04;;;;;;;36.80;5.82;;;10.90;79.30;;;;;;5099565;28;20039;-45
2022/01/08 07:25:30;;;;;;;32.13;6.45;;;10.90;78.70;;;;;;5099554;28;20026;-45
2022/01/08 07:27:55;;;;;;;27.42;5.55;;;10.90;77.90;;;;;;5099413;28;20016;-45
2022/01/08 07:30:21;;;;;;;30.63;5.45;;;10.90;78.00;;;;;;5099689;28;20554;-45
2022/01/08 07:32:50;;;;;;;29.83;4.95;;;10.90;78.20;;;;;;5099384;28;20099;-45
2022/01/08 07:35:21;;;;;;;25.00;5.30;;;10.80;77.30;;;;;;5099473;28;20016;-45
2022/01/08 07:37:48;;;;;;;28.30;5.68;;;10.80;77.40;;;;;;5099334;28;20028;-45
2022/01/08 07:40:14;;;;;;;30.58;5.43;;;10.80;77.90;;;;;;5098937;28;20046;-45
2022/01/08 07:42:41;;;;;;;28.60;6.55;;;10.80;78.00;;;;;;5099373;28;20019;-45
2022/01/08 07:45:08;;;;;;;30.00;5.03;;;10.80;78.60;;;;;;5098821;28;20020;-46
2022/01/08 07:47:34;;;;;;;27.73;5.28;;;10.80;78.80;;;;;;5098934;28;20581;-45
2022/01/08 07:50:01;;;;;;;29.13;5.22;;;10.70;79.10;;;;;;5099247;28;20425;-45
2022/01/08 07:52:27;;;;;;;37.92;6.68;;;10.80;79.30;;;;;;5098899;28;20031;-45
2022/01/08 07:54:53;;;;;;;26.48;6.00;;;10.80;79.40;;;;;;5098805;28;20119;-44
2022/01/08 07:57:18;;;;;;;33.88;5.68;;;10.80;78.90;;;;;;5099023;28;20069;-46
2022/01/08 07:59:44;;;;;;;27.05;6.57;;;10.80;79.40;;;;;;5098858;28;20030;-45
2022/01/08 08:02:10;;;;;;;40.42;7.43;;;10.80;79.70;;;;;;5098851;28;20056;-46
2022/01/08 08:04:37;;;;;;;37.85;6.95;;;10.80;80.50;;;;;;5098909;28;20491;-45
2022/01/08 08:07:03;;;;;;;33.60;6.07;;;10.80;80.80;;;;;;5098699;28;20024;-45
2022/01/08 08:09:28;;;;;;;31.95;6.47;;;10.90;80.50;;;;;;5098885;28;20561;-45
2022/01/08 08:11:54;;;;;;;36.85;6.68;;;10.80;80.00;;;;;;5098780;28;20399;-45
2022/01/08 08:14:20;;;;;;;43.10;8.68;;;10.90;80.20;;;;;;5098709;28;20028;-45
2022/01/08 08:16:46;;;;;;;34.63;6.18;;;10.80;80.30;;;;;;5098514;28;20016;-45
2022/01/08 08:19:11;;;;;;;38.03;7.18;;;10.90;80.30;;;;;;5098953;28;20088;-45
2022/01/08 08:21:37;;;;;;;39.58;8.38;;;10.90;80.90;;;;;;5098296;28;20048;-45
2022/01/08 08:24:06;;;;;;;32.33;6.78;;;10.80;81.60;;;;;;5098613;28;20091;-45
2022/01/08 08:26:32;;;;;;;31.88;5.90;;;10.80;82.40;;;;;;5098154;28;20556;-45
2022/01/08 08:28:58;;;;;;;29.17;5.30;;;10.80;82.80;;;;;;5098565;28;20051;-45
2022/01/08 08:31:24;;;;;;;26.77;5.60;;;10.70;82.80;;;;;;5098463;28;20028;-46
2022/01/08 08:33:50;;;;;;;31.63;6.65;;;10.70;83.40;;;;;;5098252;28;20035;-45
2022/01/08 08:36:16;;;;;;;31.40;5.97;;;10.60;84.60;;;;;;5098253;28;20024;-47
2022/01/08 08:38:42;;;;;;;46.20;6.53;;;10.60;85.50;;;;;;5098237;28;20032;-45
2022/01/08 08:41:10;;;;;;;42.80;6.50;;;10.60;85.80;;;;;;5098150;28;20020;-45
2022/01/08 08:43:36;;;;;;;30.95;6.63;;;10.60;86.30;;;;;;5098302;28;20035;-51
2022/01/08 08:46:02;;;;;;;31.17;6.30;;;10.50;85.70;;;;;;5098149;28;20017;-46
2022/01/08 08:48:28;;;;;;;41.80;7.38;;;10.60;84.90;;;;;;5098010;28;20031;-49
2022/01/08 08:50:54;;;;;;;39.88;8.38;;;10.60;85.10;;;;;;5098346;28;20028;-48
2022/01/08 08:53:20;;;;;;;30.15;6.63;;;10.60;85.10;;;;;;5097980;28;20028;-47
2022/01/08 08:55:48;;;;;;;30.80;7.10;;;10.60;84.70;;;;;;5096489;28;20024;-46
2022/01/08 08:58:14;;;;;;;38.22;7.97;;;10.60;85.10;;;;;;5098077;28;20031;-46
2022/01/08 09:00:40;;;;;;;28.27;7.15;;;10.60;85.20;;;;;;5098092;28;20084;-46
2022/01/08 09:03:06;;;;;;;29.35;6.53;;;10.60;83.80;;;;;;5098058;28;20020;-46
2022/01/08 09:05:32;;;;;;;28.55;5.90;;;10.60;83.90;;;;;;5098024;28;20486;-47
2022/01/08 09:07:57;;;;;;;30.05;6.78;;;10.60;83.70;;;;;;5097721;28;20024;-46
2022/01/08 09:10:25;;;;;;;33.60;5.68;;;10.60;83.60;;;;;;5097832;28;20012;-45
2022/01/08 09:12:52;;;;;;;33.10;7.13;;;10.70;83.30;;;;;;5097705;28;20534;-46
2022/01/08 09:15:22;;;;;;;26.20;6.32;;;10.70;83.30;;;;;;5097983;28;20023;-46
2022/01/08 09:17:49;;;;;;;30.00;6.88;;;10.70;83.10;;;;;;5097489;28;20502;-51
2022/01/08 09:20:15;;;;;;;27.65;6.57;;;10.70;83.30;;;;;;5097675;28;20452;-46
2022/01/08 09:22:41;;;;;;;26.50;5.55;;;10.80;83.40;;;;;;5097590;28;20547;-48
2022/01/08 09:25:07;;;;;;;25.42;6.05;;;10.80;83.20;;;;;;5097735;28;20095;-46
2022/01/08 09:27:33;;;;;;;25.45;5.80;;;10.80;83.00;;;;;;5097822;28;20058;-48
2022/01/08 09:30:00;;;;;;;24.88;5.97;;;10.80;83.30;;;;;;5097602;28;20074;-47
2022/01/08 09:32:26;;;;;;;25.17;6.30;;;10.80;82.90;;;;;;5097624;28;20024;-45
2022/01/08 09:34:52;;;;;;;30.05;7.47;;;10.80;82.90;;;;;;5097578;28;20024;-49
2022/01/08 09:37:18;;;;;;;29.67;7.03;;;10.90;82.90;;;;;;5097741;28;20032;-48
2022/01/08 09:39:44;;;;;;;29.17;7.68;;;10.90;83.30;;;;;;5097478;28;20069;-46
2022/01/08 09:42:10;;;;;;;33.58;7.43;;;10.90;83.30;;;;;;5097217;28;20028;-48
2022/01/08 09:44:38;;;;;;;30.13;7.43;;;10.90;83.00;;;;;;5097454;28;20429;-46
2022/01/08 09:47:05;;;;;;;34.63;7.57;;;10.90;83.00;;;;;;5097635;28;20021;-45
2022/01/08 09:49:32;;;;;;;28.33;6.28;;;10.90;83.30;;;;;;5097608;28;20020;-45
2022/01/08 09:52:00;;;;;;;27.30;6.35;;;10.90;83.10;;;;;;5097472;28;20036;-47
2022/01/08 09:54:27;;;;;;;25.38;5.50;;;11.00;83.20;;;;;;5097568;28;20055;-46
2022/01/08 09:56:53;;;;;;;28.30;6.57;;;10.90;83.00;;;;;;5097440;28;20034;-46
2022/01/08 09:59:20;;;;;;;31.15;7.97;;;11.00;82.90;;;;;;5097708;28;20035;-44
2022/01/08 10:01:54;;;;;;;30.08;7.20;;;11.00;82.70;;;;;;5097426;28;20024;-44
2022/01/08 10:04:29;;;;;;;28.17;7.18;;;11.00;83.20;;;;;;5097086;28;20373;-44
2022/01/08 10:07:19;;;;;;;34.03;6.57;;;11.00;83.10;;;;;;5097297;28;20487;-45
2022/01/08 10:10:16;;;;;;;33.60;7.68;;;11.00;83.00;;;;;;5097650;28;20032;-45
2022/01/08 10:12:46;;;;;;;30.58;5.75;;;11.00;83.10;;;;;;5099509;28;20028;-46
2022/01/08 10:18:01;;;;;;;24.83;6.18;;;11.00;83.30;;;;;;5101186;28;20050;-46
2022/01/08 10:20:39;;;;;;;29.65;5.68;;;11.10;83.40;;;;;;5100306;28;20052;-45
2022/01/08 10:23:26;;;;;;;22.92;5.78;;;11.10;83.60;;;;;;5100657;28;20036;-47
2022/01/08 10:26:05;;;;;;;28.33;5.38;;;11.10;83.30;;;;;;5100911;28;20464;-45
2022/01/08 10:28:53;;;;;;;26.75;5.90;;;11.10;84.10;;;;;;5100868;28;20376;-44
2022/01/08 10:31:28;;;;;;;33.38;6.25;;;11.10;83.10;;;;;;5100575;28;20020;-45
2022/01/08 10:34:03;;;;;;;32.03;8.23;;;11.10;83.20;;;;;;5100626;28;20109;-46
2022/01/08 10:36:34;;;;;;;37.28;6.60;;;11.10;83.40;;;;;;5100374;28;20495;-45
2022/01/08 10:39:04;;;;;;;30.77;7.47;;;11.10;83.20;;;;;;5100364;28;20032;-44
2022/01/08 10:41:30;;;;;;;34.08;7.47;;;11.10;83.50;;;;;;5100306;28;20039;-44
2022/01/08 10:44:13;;;;;;;34.78;7.40;;;11.10;83.20;;;;;;5100532;28;20024;-44
2022/01/08 10:47:03;;;;;;;35.10;7.38;;;11.10;83.10;;;;;;5100467;28;20472;-44
2022/01/08 10:49:34;;;;;;;37.28;7.07;;;11.10;83.10;;;;;;5099742;28;20036;-44
2022/01/08 10:52:03;;;;;;;35.28;9.30;;;11.20;83.40;;;;;;5100223;28;20038;-44
2022/01/08 10:54:33;;;;;;;32.65;6.75;;;11.20;83.30;;;;;;5100322;28;20035;-44
2022/01/08 10:57:02;;;;;;;35.30;7.07;;;11.20;83.40;;;;;;5100095;28;20483;-44
2022/01/08 10:59:30;;;;;;;34.75;7.28;;;11.20;83.20;;;;;;5100150;28;20050;-44
2022/01/08 11:01:58;;;;;;;31.35;6.78;;;11.20;83.20;;;;;;5099833;28;20031;-44
2022/01/08 11:04:48;;;;;;;35.45;7.07;;;11.20;83.20;;;;;;5100024;28;20024;-44
2022/01/08 11:07:20;;;;;;;39.05;7.20;;;11.20;83.80;;;;;;5099961;28;20095;-44
2022/01/08 11:09:47;;;;;;;36.80;7.00;;;11.20;83.30;;;;;;5099850;28;20086;-44
2022/01/08 11:12:25;;;;;;;38.72;6.93;;;11.20;83.20;;;;;;5099780;28;20012;-44
2022/01/08 11:17:37;;;;;;;26.75;6.47;;;11.20;83.70;;;;;;5099939;28;20027;-44
2022/01/08 11:20:03;;;;;;;28.63;5.85;;;11.20;83.40;;;;;;5097550;28;20372;-44
2022/01/08 11:22:31;;;;;;;31.75;6.07;;;11.20;83.50;;;;;;5098991;28;20043;-44
2022/01/08 11:25:11;;;;;;;28.20;6.10;;;11.20;83.60;;;;;;5099475;28;20085;-44
2022/01/08 11:28:10;;;;;;;38.40;7.28;;;11.20;83.60;;;;;;5099549;28;20031;-44
2022/01/08 11:30:57;;;;;;;34.22;6.40;;;11.20;83.60;;;;;;5099404;28;20028;-45
2022/01/08 11:33:29;;;;;;;35.53;6.88;;;11.30;84.20;;;;;;5099344;28;20012;-44
2022/01/08 11:35:56;;;;;;;31.25;6.22;;;11.30;83.70;;;;;;5099061;28;20032;-47
2022/01/08 11:38:23;;;;;;;30.60;6.97;;;11.30;84.20;;;;;;5099478;28;20016;-44
2022/01/08 11:40:52;;;;;;;33.05;7.20;;;11.30;83.70;;;;;;5098982;28;20055;-45
2022/01/08 11:43:24;;;;;;;42.70;8.43;;;11.30;83.60;;;;;;5098987;28;20027;-46
2022/01/08 11:45:56;;;;;;;35.78;6.88;;;11.30;83.70;;;;;;5098840;28;20016;-48
2022/01/08 11:48:47;;;;;;;31.50;7.60;;;11.30;83.40;;;;;;5098745;28;20031;-46
2022/01/08 11:51:18;;;;;;;34.80;6.97;;;11.30;83.50;;;;;;5098897;28;20032;-45
2022/01/08 11:53:58;;;;;;;35.45;8.93;;;11.40;83.30;;;;;;5098867;28;20042;-46
2022/01/08 11:56:25;;;;;;;38.03;6.65;;;11.40;83.50;;;;;;5098609;28;20038;-47
2022/01/08 11:59:28;;;;;;;28.15;6.38;;;11.40;83.70;;;;;;5098610;28;20024;-45
2022/01/08 12:02:07;;;;;;;30.20;6.68;;;11.40;84.30;;;;;;5085685;28;20039;-46
2022/01/08 12:04:33;;;;;;;31.27;6.22;;;11.40;84.00;;;;;;5097581;28;20036;-49
2022/01/08 12:07:33;;;;;;;25.23;6.15;;;11.40;83.60;;;;;;5098235;28;20024;-48
2022/01/08 12:10:24;;;;;;;30.70;6.90;;;11.40;84.20;;;;;;5098041;28;20020;-48
2022/01/08 12:13:00;;;;;;;26.80;6.28;;;11.40;83.60;;;;;;5097900;28;20036;-47
2022/01/08 12:15:40;;;;;;;32.60;7.15;;;11.40;84.10;;;;;;5098141;28;20028;-47
2022/01/08 12:18:30;;;;;;;31.25;7.60;;;11.40;83.50;;;;;;5098252;28;20024;-48
2022/01/08 12:20:56;;;;;;;35.90;9.00;;;11.40;83.80;;;;;;5097453;28;20071;-45
2022/01/08 12:23:24;;;;;;;39.08;8.02;;;11.50;84.00;;;;;;5098202;28;20180;-47
2022/01/08 12:25:50;;;;;;;37.80;7.53;;;11.50;84.10;;;;;;5097987;28;20016;-46
2022/01/08 12:28:47;;;;;;;35.90;8.07;;;11.50;83.90;;;;;;5098099;28;20027;-46
2022/01/08 12:31:29;;;;;;;32.17;6.85;;;11.50;83.60;;;;;;5097606;28;20024;-46
2022/01/08 12:34:17;;;;;;;39.00;7.75;;;11.50;83.70;;;;;;5098238;28;20032;-49
2022/01/08 12:37:08;;;;;;;30.13;6.10;;;11.50;84.00;;;;;;5097787;28;20032;-45
2022/01/08 12:39:43;;;;;;;26.30;6.78;;;11.50;83.90;;;;;;5097910;28;20031;-47
2022/01/08 12:42:24;;;;;;;33.85;5.93;;;11.50;83.80;;;;;;5097824;28;20475;-47
2022/01/08 12:45:01;;;;;;;35.78;7.60;;;11.50;83.70;;;;;;5097811;28;20031;-46
2022/01/08 12:47:39;;;;;;;33.63;7.05;;;11.50;84.00;;;;;;5097848;28;20020;-47
2022/01/08 12:50:24;;;;;;;32.38;6.45;;;11.50;84.00;;;;;;5097699;28;20054;-46
2022/01/08 12:53:05;;;;;;;36.35;7.32;;;11.50;84.10;;;;;;5098065;28;20031;-49
2022/01/08 12:55:31;;;;;;;35.92;6.38;;;11.50;84.30;;;;;;5097392;28;20031;-47
2022/01/08 12:57:58;;;;;;;32.92;8.02;;;11.50;84.00;;;;;;5097501;28;20333;-47
2022/01/08 13:00:25;;;;;;;34.05;8.05;;;11.50;84.20;;;;;;5096135;28;20028;-48
2022/01/08 13:02:51;;;;;;;39.40;8.60;;;11.50;83.70;;;;;;5097406;28;20032;-46
2022/01/08 13:05:17;;;;;;;42.08;8.93;;;11.50;84.00;;;;;;5097357;28;20020;-45
2022/01/08 13:07:50;;;;;;;33.67;8.23;;;11.50;83.70;;;;;;5097568;28;20497;-50
2022/01/08 13:10:17;;;;;;;34.13;7.80;;;11.50;84.30;;;;;;5096979;28;20023;-47
2022/01/08 13:12:57;;;;;;;35.05;7.57;;;11.50;84.00;;;;;;5097763;28;20020;-45
2022/01/08 13:15:29;;;;;;;30.13;7.57;;;11.50;84.20;;;;;;5097807;28;20021;-47
2022/01/08 13:17:54;;;;;;;37.35;7.95;;;11.50;84.50;;;;;;5097774;28;20020;-46